Aérodrome :
LOGIN :

S'inscrire | Disclaimer

   EN    FR    IT 

 










Légende :    VFR   VFR Marginal   IFR   IFR Intensif   IFR Très Intensif
Visi : 
Plafond : 
>= 8 km
>= 3000ft
5 à 8 km
1000 à 3000 ft
1500m à 5 km
500 à 1000 ft
800 à 1500m
200 à 500 ft
< 800m
< 200 ft
Symboles :   Orages  Brouillard  Fortes neiges  Fortes précipitations  Vent > 20 kt
SIGMETs :   Divers  Orages  Givrage  Turbulence  Onde Orograph.  Cendres Volcan.






- Altitude de l'aérodrome : 119 ft
- Code IATA : WAT


EIWF - Waterford

DERNIER METAR :
  • 151100Z 27006KT 230V300 9999 FEW004 SCT020 05/03 Q0989

METARs EXPIRÉS :
  • 151030Z 27009KT 230V320 9999 SCT004 05/04 Q0989 REDZ
  • 151000Z 27005KT 200V350 4000 DZ BKN005 04/02 Q0989
  • 150930Z 11004KT 9999 FEW030 01/M00 Q0989
  • 150900Z 13004KT 9999 SCT029 M00/M02 Q0989
  • 150830Z 00000KT 9999 BKN028 00/M02 Q0989
  • 150800Z 00000KT 9999 FEW033 01/M01 Q0989

TAF TAF EIWF
Valide du 15 à 09h jusqu'au 15 à 18h UTC


150800Z 1509/1518 21008KT 9999 SCT010 BKN020
BECMG 1509/1510 17008KT
TEMPO 1509/1518 4000 SHRA BKN010 SCT018CB
BECMG 1510/1512 21018G28KT
PROB30
TEMPO 1513/1518 22025G38KT
ATIS : +353 51 877 000



MET'MAP, la Météo Aéronautique d'un coup d'oeil ! - Copyright ORBIFLY Décembre 2007 - Disclaimer

ORBIFLY MET'MAP TEAM :

Programmation & Développement : Alexandra Zaïnal
Sur une idée originale de : Baudouin d'Aumeries
Assistance à la programmation : Marc-Olivier Méhu
Soutien technique & logistique : Manuel Goepfert

Contact : metmap@orbifly.com




SOURCES & CREDITS :

   NOAA